Home > Products > Valid Products > TAF

000
FTUS43 KTOP 251700
TAFTOP
TAF
KTOP 251727Z 2518/2618 14014G24KT P6SM SCT020 BKN040
     FM252300 19010KT P6SM VCTS SCT020 BKN030CB
     FM260400 20008KT P6SM FEW040 SCT080=



000
FTUS43 KTOP 251700
TAFTOP
TAF
KTOP 251727Z 2518/2618 14014G24KT P6SM SCT020 BKN040
     FM252300 19010KT P6SM VCTS SCT020 BKN030CB
     FM260400 20008KT P6SM FEW040 SCT080=



000
FTUS43 KTOP 251400 AAA
TAFTOP
TAF AMD
KTOP 251427Z 2514/2612 12008KT P6SM SCT060
     FM251800 16014G24KT P6SM SCT050
     FM260200 17012KT P6SM VCTS SCT040CB BKN250=



000
FTUS43 KTOP 251100
TAFTOP
TAF
KTOP 251120Z 2512/2612 21006KT 5SM -TSRA SCT019 BKN050CB
     FM251300 18012KT P6SM VCSH SCT012 BKN050
     FM251800 18014G24KT P6SM SCT050
     FM260200 17012KT P6SM VCTS SCT040CB BKN250=



000
FTUS43 KTOP 250900 AAA
TAFTOP
TAF AMD
KTOP 250945Z 2510/2606 21006KT P6SM BKN019 BKN080
     FM251300 18012KT P6SM VCSH SCT012 BKN050
     FM251800 18014G24KT P6SM BKN050
     FM260200 17012KT P6SM VCTS SCT040CB BKN250=



000
FTUS43 KTOP 250500
TAFTOP
TAF
KTOP 250520Z 2506/2606 21006KT P6SM SCT012 BKN080
     FM251300 18012KT P6SM VCSH SCT012 BKN050
     FM251800 18014G24KT P6SM BKN050
     FM260200 17012KT P6SM VCTS SCT040CB BKN250=



000
FTUS43 KTOP 242300
TAFTOP
TAF
KTOP 242335Z 2500/2524 19010KT P6SM VCSH SCT025 BKN090
     FM250600 21006KT P6SM BKN020 BKN050
     FM251300 18012KT P6SM VCSH SCT012 BKN050
     FM251800 18014G24KT P6SM BKN050=



000
FTUS43 KTOP 242300
TAFTOP
TAF
KTOP 242335Z 2500/2524 19010KT P6SM VCSH SCT025 BKN090
     FM250600 21006KT P6SM BKN020 BKN050
     FM251300 18012KT P6SM VCSH SCT012 BKN050
     FM251800 18014G24KT P6SM BKN050=



000
FTUS43 KTOP 242100 AAA
TAFTOP
TAF AMD
KTOP 242100Z 2421/2518 18010KT P6SM VCSH SCT025 BKN090
     FM250100 18006KT P6SM VCSH BKN020 BKN050
     FM250600 18006KT P6SM SCT012 BKN050=



000
FTUS43 KTOP 241700
TAFTOP
TAF
KTOP 241734Z 2418/2518 18010KT P6SM VCSH SCT025 BKN040
      TEMPO 2422/2502 4SM -TSRA OVC015CB
     FM250200 18006KT P6SM BKN050
     FM251300 18006KT P6SM VCSH SCT012 BKN050=



000
FTUS43 KTOP 241100
TAFTOP
TAF
KTOP 241120Z 2412/2512 VRB03KT P6SM SCT007 BKN040
     FM241800 16012KT P6SM -SHRA BKN030
      TEMPO 2422/2502 4SM -TSRA OVC015CB
     FM250200 15008KT 4SM -RA BR OVC012
     FM250600 18006KT P6SM SCT012 BKN040=



000
FTUS43 KTOP 240700 AAA
TAFTOP
TAF AMD
KTOP 240745Z 2408/2506 09013KT 4SM RA BR BKN010
     FM240900 12008KT P6SM -SHRA BKN008
     FM241500 16009KT 5SM RA BR BKN012
     FM241800 16012KT P6SM BKN035
      TEMPO 2422/2502 4SM -TSRA OVC015CB
     FM250200 15008KT 4SM -RA BR OVC012=



000
FTUS43 KTOP 240700 AAA
TAFTOP
TAF AMD
KTOP 240745Z 2408/2506 09013KT 4SM RA BR BKN010
     FM240900 12008KT P6SM -SHRA BKN008
     FM241500 16009KT 5SM RA BR BKN012
     FM241800 16012KT P6SM BKN035
      TEMPO 2422/2502 4SM -TSRA OVC015CB
     FM250200 15008KT 4SM -RA BR OVC012=



000
FTUS43 KTOP 240500
TAFTOP
TAF
KTOP 240532Z 2406/2506 09013KT 4SM RA BR BKN012
      TEMPO 2406/2408 2SM RA BR OVC007
     FM240900 12008KT P6SM -SHRA BKN008
     FM241500 16009KT 5SM RA BR BKN012
     FM241800 16012KT P6SM BKN035
      TEMPO 2422/2502 4SM -TSRA OVC015CB
     FM250200 15008KT 4SM -RA BR OVC012=



000
FTUS43 KTOP 240400 AAB
TAFTOP
TAF AMD
KTOP 240412Z 2404/2424 09012G20KT 4SM RA BR BKN012
     FM240700 12008KT P6SM -SHRA BKN008
     FM241500 16009KT 5SM RA BR BKN012
     FM241900 18009KT P6SM BKN035
      TEMPO 2421/2424 4SM -TSRA OVC015CB=



000
FTUS43 KTOP 240200 AAA
TAFTOP
TAF AMD
KTOP 240237Z 2403/2424 06006KT 5SM RA BR BKN015
     FM240600 12008KT P6SM -SHRA BKN008
     FM241500 16009KT P6SM BKN012
     FM242000 18009KT P6SM BKN035
      TEMPO 2421/2424 4SM -TSRA OVC015CB=



000
FTUS43 KTOP 240200 AAA
TAFTOP
TAF AMD
KTOP 240237Z 2403/2424 06006KT 5SM RA BR BKN015
     FM240600 12008KT P6SM -SHRA BKN008
     FM241500 16009KT P6SM BKN012
     FM242000 18009KT P6SM BKN035
      TEMPO 2421/2424 4SM -TSRA OVC015CB=



000
FTUS43 KTOP 232300
TAFTOP
TAF
KTOP 232339Z 2400/2424 13006KT 5SM RA BR BKN015
      TEMPO 2400/2402 2SM TSRA OVC030CB
     FM240700 12008KT P6SM -SHRA BKN008
     FM241500 16009KT P6SM BKN012
     FM242000 18009KT P6SM BKN035
      TEMPO 2421/2424 4SM -TSRA OVC015CB=



000
FTUS43 KTOP 232000 AAB
TAFTOP
TAF AMD
KTOP 232035Z 2321/2418 13008KT P6SM VCTS BKN015CB
     FM232100 13011KT 2SM -TSRA BKN015CB
     FM232300 13009KT 4SM RA VCTS BKN008CB
     FM240700 14008KT P6SM SHRA BKN008=



000
FTUS43 KTOP 232000 AAB
TAFTOP
TAF AMD
KTOP 232035Z 2321/2418 13008KT P6SM VCTS BKN015CB
     FM232100 13011KT 2SM -TSRA BKN015CB
     FM232300 13009KT 4SM RA VCTS BKN008CB
     FM240700 14008KT P6SM SHRA BKN008=



000
FTUS43 KTOP 231900 AAA
TAFTOP
TAF AMD
KTOP 231959Z 2320/2418 13008KT P6SM VCTS BKN015CB
     FM232100 13011KT P6SM -TSRA BKN015CB
     FM240200 13009KT 4SM RA VCTS BKN008CB
     FM240700 14008KT P6SM SHRA BKN010 OVC030=



000
FTUS43 KTOP 231700
TAFTOP
TAF
KTOP 231722Z 2318/2418 13008KT P6SM BKN015 OVC025
     FM232100 13011KT P6SM SHRA BKN015 OVC025
     FM240200 13009KT 4SM RA VCTS BKN010CB OVC025
     FM240700 14008KT P6SM SHRA BKN010 OVC030=



000
FTUS43 KTOP 231700
TAFTOP
TAF
KTOP 231722Z 2318/2418 13008KT P6SM BKN015 OVC025
     FM232100 13011KT P6SM SHRA BKN015 OVC025
     FM240200 13009KT 4SM RA VCTS BKN010CB OVC025
     FM240700 14008KT P6SM SHRA BKN010 OVC030=



000
FTUS43 KTOP 231500 AAA
TAFTOP
TAF AMD
KTOP 231540Z 2316/2412 13008KT P6SM BKN015 OVC025
     FM232000 13011KT P6SM SHRA BKN015 OVC025
     FM240100 10010KT 4SM RA VCTS BKN015CB OVC025
      TEMPO 2405/2409 1SM +TSRA BKN005CB=



000
FTUS43 KTOP 231500 AAA
TAFTOP
TAF AMD
KTOP 231540Z 2316/2412 13008KT P6SM BKN015 OVC025
     FM232000 13011KT P6SM SHRA BKN015 OVC025
     FM240100 10010KT 4SM RA VCTS BKN015CB OVC025
      TEMPO 2405/2409 1SM +TSRA BKN005CB=



000
FTUS43 KTOP 231100
TAFTOP
TAF
KTOP 231120Z 2312/2412 13008KT P6SM VCSH SCT007 OVC015
     FM231300 12008KT P6SM VCSH BKN008 OVC015
     FM231700 13011KT P6SM SHRA BKN015 OVC025
     FM240100 10010KT 4SM RA VCTS BKN015CB OVC025
      TEMPO 2405/2409 1SM +TSRA BKN005CB=



000
FTUS43 KTOP 231100
TAFTOP
TAF
KTOP 231120Z 2312/2412 13008KT P6SM VCSH SCT007 OVC015
     FM231300 12008KT P6SM VCSH BKN008 OVC015
     FM231700 13011KT P6SM SHRA BKN015 OVC025
     FM240100 10010KT 4SM RA VCTS BKN015CB OVC025
      TEMPO 2405/2409 1SM +TSRA BKN005CB=



000
FTUS43 KTOP 230900 AAA
TAFTOP
TAF AMD
KTOP 230901Z 2309/2406 12005KT P6SM SHRA OVC035
     FM230930 13008KT P6SM SHRA SCT007 OVC015
     FM231300 12008KT 6SM SHRA BR BKN008 OVC015
     FM231700 13011KT P6SM SHRA BKN015 OVC025
     FM240100 10010KT 4SM RA VCTS BKN015CB OVC025=



000
FTUS43 KTOP 230500
TAFTOP
TAF
KTOP 230520Z 2306/2406 12005KT P6SM OVC040
     FM231100 13008KT P6SM SHRA SCT015 OVC025
     FM231200 13008KT P6SM SHRA BKN015 OVC025
     FM231300 12008KT 6SM SHRA BR BKN008 OVC015
     FM231700 13011KT P6SM SHRA BKN015 OVC025
     FM240100 10010KT 4SM RA VCTS BKN015CB OVC025=



000
FTUS43 KTOP 222300
TAFTOP
TAF
KTOP 222331Z 2300/2324 12006KT P6SM OVC050
     FM231500 13009KT P6SM SHRA SCT015 OVC025
     FM231900 13012KT P6SM SHRA BKN015 OVC025
     FM232200 14012KT 4SM RA VCTS BKN015CB OVC025=



000
FTUS43 KTOP 222300
TAFTOP
TAF
KTOP 222331Z 2300/2324 12006KT P6SM OVC050
     FM231500 13009KT P6SM SHRA SCT015 OVC025
     FM231900 13012KT P6SM SHRA BKN015 OVC025
     FM232200 14012KT 4SM RA VCTS BKN015CB OVC025=



    US Dept of Commerce
    National Oceanic and Atmospheric Administration
    National Weather Service
    1325 East West Highway
    Silver Spring, MD 20910
    Page Author: NWS Internet Services Team
Disclaimer
Information Quality
Credits
Glossary
Privacy Policy
Freedom of Information Act (FOIA)
About Us
Career Opportunities